createdAt,value
2018-07-01T00:00:54.926Z,47.40
2018-07-01T00:03:23.440Z,47.40
2018-07-01T00:05:51.942Z,48.20
2018-07-01T00:08:20.506Z,48.10
2018-07-01T00:10:49.036Z,48.80
2018-07-01T00:13:17.498Z,49.10
2018-07-01T00:15:46.732Z,49.60
2018-07-01T00:18:15.206Z,50.80
2018-07-01T00:20:43.768Z,49.40
2018-07-01T00:23:12.226Z,49.60
2018-07-01T00:25:40.728Z,49.80
2018-07-01T00:28:09.226Z,49.60
2018-07-01T00:33:05.976Z,50.40
2018-07-01T00:35:34.465Z,50.20
2018-07-01T00:38:02.960Z,50.40
2018-07-01T00:40:31.464Z,51.20
2018-07-01T00:43:00.008Z,51.00
2018-07-01T00:45:28.465Z,51.20
2018-07-01T00:47:57.006Z,51.30
2018-07-01T00:50:25.447Z,52.40
2018-07-01T00:52:54.067Z,51.30
2018-07-01T00:55:22.561Z,52.40
2018-07-01T00:57:51.073Z,52.80
2018-07-01T01:00:34.545Z,51.10
2018-07-01T01:03:03.760Z,52.50
2018-07-01T01:05:33.019Z,53.40
2018-07-01T01:08:02.211Z,53.30
2018-07-01T01:10:30.656Z,53.40
2018-07-01T01:12:59.154Z,53.30
2018-07-01T01:15:27.761Z,53.20
2018-07-01T01:17:56.250Z,53.00
2018-07-01T01:20:24.703Z,53.20
2018-07-01T01:22:53.465Z,54.10
2018-07-01T01:25:21.939Z,54.00
2018-07-01T01:27:50.577Z,54.00
2018-07-01T01:30:19.031Z,53.80
2018-07-01T01:32:47.601Z,53.90
2018-07-01T01:35:16.106Z,52.60
2018-07-01T01:37:44.762Z,53.50
2018-07-01T01:40:14.463Z,54.40
2018-07-01T01:42:48.042Z,55.10
2018-07-01T01:48:12.101Z,55.80
2018-07-01T01:50:46.497Z,55.70
2018-07-01T01:53:20.129Z,55.70
2018-07-01T01:55:52.870Z,55.80
2018-07-01T01:58:34.689Z,56.50
2018-07-01T02:01:09.073Z,56.00
2018-07-01T02:03:52.947Z,55.80
2018-07-01T02:06:25.498Z,56.50
2018-07-01T02:09:02.018Z,56.40
2018-07-01T02:11:31.889Z,56.00
2018-07-01T02:14:03.693Z,55.20
2018-07-01T02:16:36.125Z,55.60
2018-07-01T02:19:04.695Z,55.50
2018-07-01T02:21:33.206Z,56.60
2018-07-01T02:24:05.537Z,55.60
2018-07-01T02:26:34.653Z,55.80
2018-07-01T02:29:03.236Z,55.70
2018-07-01T02:31:31.764Z,55.70
2018-07-01T02:34:00.219Z,55.80
2018-07-01T02:36:28.738Z,55.40
2018-07-01T02:38:57.200Z,56.10
2018-07-01T02:41:25.683Z,56.00
2018-07-01T02:43:54.487Z,56.60
2018-07-01T02:48:51.734Z,57.40
2018-07-01T02:51:20.718Z,58.20
2018-07-01T02:53:49.170Z,56.70
2018-07-01T02:56:17.654Z,58.40
2018-07-01T02:58:46.822Z,58.40
2018-07-01T03:01:15.895Z,58.40
2018-07-01T03:03:44.387Z,58.40
2018-07-01T03:08:41.070Z,58.40
2018-07-01T03:11:10.592Z,58.50
2018-07-01T03:13:39.166Z,58.50
2018-07-01T03:16:07.681Z,58.20
2018-07-01T03:18:36.758Z,58.40
2018-07-01T03:21:05.353Z,58.30
2018-07-01T03:23:34.664Z,58.30
2018-07-01T03:26:03.110Z,58.40
2018-07-01T03:28:31.586Z,58.50
2018-07-01T03:31:00.039Z,57.90
2018-07-01T03:33:28.587Z,58.80
2018-07-01T03:35:57.042Z,59.00
2018-07-01T03:38:25.608Z,59.10
2018-07-01T03:40:54.053Z,59.00
2018-07-01T03:43:22.561Z,58.90
2018-07-01T03:45:51.026Z,58.80
2018-07-01T03:48:19.515Z,58.80
2018-07-01T03:50:48.059Z,59.70
2018-07-01T03:53:17.190Z,58.70
2018-07-01T03:55:45.670Z,59.00
2018-07-01T03:58:14.899Z,59.40
2018-07-01T04:00:43.401Z,59.30
2018-07-01T04:03:11.994Z,58.80
2018-07-01T04:05:40.491Z,59.60
2018-07-01T04:08:09.015Z,60.00
2018-07-01T04:10:37.641Z,60.00
2018-07-01T04:13:06.110Z,59.40
2018-07-01T04:15:34.608Z,59.80
2018-07-01T04:18:03.102Z,59.00
2018-07-01T04:20:31.607Z,59.10
2018-07-01T04:23:00.065Z,60.10
2018-07-01T04:25:28.608Z,59.10
2018-07-01T04:27:57.077Z,59.00
2018-07-01T04:30:25.611Z,59.00
2018-07-01T04:32:54.083Z,59.00
2018-07-01T04:35:22.619Z,59.90
2018-07-01T04:37:51.106Z,60.10
2018-07-01T04:40:19.849Z,59.20
2018-07-01T04:42:48.328Z,59.30
2018-07-01T04:45:16.812Z,59.40
2018-07-01T04:47:45.502Z,58.40
2018-07-01T04:50:13.972Z,58.50
2018-07-01T04:52:42.504Z,58.70
2018-07-01T04:55:11.039Z,57.30
2018-07-01T04:57:39.537Z,57.40
2018-07-01T05:00:08.014Z,57.40
2018-07-01T05:02:36.590Z,56.90
2018-07-01T05:05:05.093Z,57.20
2018-07-01T05:10:01.769Z,56.90
2018-07-01T05:12:30.250Z,56.60
2018-07-01T05:14:58.763Z,54.40
2018-07-01T05:17:27.251Z,54.70
2018-07-01T05:19:56.643Z,55.00
2018-07-01T05:22:31.842Z,54.60
2018-07-01T05:25:00.299Z,53.50
2018-07-01T05:27:35.870Z,52.80
2018-07-01T05:30:04.430Z,51.80
2018-07-01T05:35:01.159Z,50.40
2018-07-01T05:37:29.673Z,49.40
2018-07-01T05:39:58.292Z,49.10
2018-07-01T05:42:26.831Z,49.60
2018-07-01T05:44:55.285Z,49.80
2018-07-01T05:47:23.864Z,49.20
2018-07-01T05:49:52.436Z,48.90
2018-07-01T05:52:20.943Z,48.40
2018-07-01T05:54:49.550Z,48.00
2018-07-01T05:57:18.144Z,47.80
2018-07-01T05:59:46.843Z,47.30
2018-07-01T06:02:15.718Z,48.20
2018-07-01T06:04:44.221Z,47.50
2018-07-01T06:07:13.306Z,47.30
2018-07-01T06:09:42.037Z,47.10
2018-07-01T06:12:10.593Z,46.60
2018-07-01T06:14:39.258Z,46.60
2018-07-01T06:17:07.734Z,46.10
2018-07-01T06:19:36.247Z,46.20
2018-07-01T06:22:04.766Z,45.80
2018-07-01T06:24:33.338Z,45.40
2018-07-01T06:27:01.872Z,45.50
2018-07-01T06:29:30.402Z,45.10
2018-07-01T06:31:58.902Z,44.10
2018-07-01T06:34:27.401Z,44.30
2018-07-01T06:36:56.141Z,44.40
2018-07-01T06:39:24.707Z,44.40
2018-07-01T06:41:53.279Z,44.50
2018-07-01T06:44:22.304Z,44.00
2018-07-01T06:46:50.851Z,43.90
2018-07-01T06:49:19.390Z,44.10
2018-07-01T06:51:47.936Z,43.40
2018-07-01T06:54:16.430Z,43.30
2018-07-01T06:56:44.974Z,42.50
2018-07-01T06:59:13.450Z,41.50
2018-07-01T07:01:41.994Z,41.30
2018-07-01T07:04:10.478Z,40.20
2018-07-01T07:06:39.329Z,39.60
2018-07-01T07:09:09.944Z,39.30
2018-07-01T07:11:38.493Z,39.20
2018-07-01T07:14:07.028Z,39.10
2018-07-01T07:16:35.666Z,39.20
2018-07-01T07:19:04.199Z,38.00
2018-07-01T07:21:32.775Z,38.10
2018-07-01T07:24:01.251Z,38.20
2018-07-01T07:26:29.939Z,37.60
2018-07-01T07:28:58.443Z,38.10
2018-07-01T07:31:27.082Z,38.40
2018-07-01T07:33:55.691Z,38.30
2018-07-01T07:36:24.164Z,37.80
2018-07-01T07:38:52.676Z,37.50
2018-07-01T07:41:21.180Z,37.60
2018-07-01T07:43:49.744Z,37.70
2018-07-01T07:46:18.208Z,37.30
2018-07-01T07:48:46.734Z,37.40
2018-07-01T07:51:15.206Z,37.50
2018-07-01T07:53:43.713Z,37.30
2018-07-01T07:56:12.226Z,36.60
2018-07-01T07:58:40.730Z,36.50
2018-07-01T08:01:09.483Z,36.40
2018-07-01T08:03:38.067Z,36.50
2018-07-01T08:06:06.682Z,36.10
2018-07-01T08:08:35.195Z,36.40
2018-07-01T08:11:03.653Z,36.40
2018-07-01T08:13:32.157Z,36.20
2018-07-01T08:16:00.709Z,35.30
2018-07-01T08:18:29.423Z,34.60
2018-07-01T08:20:57.915Z,34.10
2018-07-01T08:23:26.490Z,34.40
2018-07-01T08:25:54.995Z,34.60
2018-07-01T08:30:52.069Z,34.20
2018-07-01T08:33:21.045Z,34.80
2018-07-01T08:35:49.693Z,34.80
2018-07-01T08:38:18.376Z,34.70
2018-07-01T08:40:47.028Z,34.60
2018-07-01T08:43:15.921Z,34.30
2018-07-01T08:45:44.407Z,34.40
2018-07-01T08:48:12.886Z,34.40
2018-07-01T08:50:41.409Z,34.60
2018-07-01T08:53:09.908Z,34.40
2018-07-01T08:55:38.435Z,33.90
2018-07-01T08:58:06.955Z,34.00
2018-07-01T09:00:35.430Z,33.20
2018-07-01T09:03:03.940Z,33.70
2018-07-01T09:05:32.440Z,32.90
2018-07-01T09:08:00.980Z,32.90
2018-07-01T09:10:29.439Z,32.70
2018-07-01T09:12:57.960Z,33.70
2018-07-01T09:17:54.822Z,33.40
2018-07-01T09:20:23.314Z,33.80
2018-07-01T09:22:51.924Z,34.60
2018-07-01T09:25:20.431Z,35.00
2018-07-01T09:27:48.930Z,34.00
2018-07-01T09:30:17.439Z,34.60
2018-07-01T09:32:45.992Z,34.90
2018-07-01T09:35:14.482Z,35.40
2018-07-01T09:37:43.261Z,36.10
2018-07-01T09:40:11.877Z,36.60
2018-07-01T09:42:40.620Z,36.50
2018-07-01T09:45:09.855Z,36.20
2018-07-01T09:47:38.426Z,36.60
2018-07-01T09:50:08.345Z,37.20
2018-07-01T09:52:36.911Z,37.40
2018-07-01T09:55:05.964Z,36.30
2018-07-01T09:57:34.755Z,36.60
2018-07-01T10:00:03.994Z,36.00
2018-07-01T10:02:32.545Z,35.70
2018-07-01T10:05:01.806Z,35.60
2018-07-01T10:07:31.199Z,35.80
2018-07-01T10:09:59.740Z,35.60
2018-07-01T10:12:28.208Z,36.20
2018-07-01T10:14:56.731Z,36.60
2018-07-01T10:17:25.269Z,36.50
2018-07-01T10:19:53.812Z,36.60
2018-07-01T10:22:22.326Z,36.60
2018-07-01T10:24:50.992Z,36.30
2018-07-01T10:27:20.115Z,36.40
2018-07-01T10:29:48.643Z,36.80
2018-07-01T10:32:17.952Z,36.40
2018-07-01T10:34:46.491Z,36.20
2018-07-01T10:37:15.290Z,35.80
2018-07-01T10:39:43.800Z,35.10
2018-07-01T10:42:12.307Z,35.30
2018-07-01T10:47:09.096Z,36.00
2018-07-01T10:49:37.681Z,36.70
2018-07-01T10:52:06.369Z,36.90
2018-07-01T10:54:34.906Z,36.90
2018-07-01T10:57:03.421Z,36.40
2018-07-01T10:59:31.937Z,37.60
2018-07-01T11:02:00.561Z,36.90
2018-07-01T11:04:29.070Z,36.70
2018-07-01T11:06:57.560Z,36.50
2018-07-01T11:09:26.139Z,36.20
2018-07-01T11:11:54.694Z,36.40
2018-07-01T11:14:23.178Z,36.60
2018-07-01T11:16:51.696Z,36.00
2018-07-01T11:19:20.165Z,35.70
2018-07-01T11:21:49.284Z,35.00
2018-07-01T11:24:17.769Z,34.20
2018-07-01T11:26:46.377Z,34.40
2018-07-01T11:29:14.814Z,34.20
2018-07-01T11:31:43.361Z,34.80
2018-07-01T11:34:11.846Z,34.90
2018-07-01T11:39:10.064Z,34.00
2018-07-01T11:41:38.638Z,34.50
2018-07-01T11:44:07.351Z,33.80
2018-07-01T11:46:36.488Z,34.10
2018-07-01T11:49:05.360Z,34.20
2018-07-01T11:51:33.921Z,34.50
2018-07-01T11:54:03.108Z,34.80
2018-07-01T11:56:31.637Z,34.90
2018-07-01T11:59:00.312Z,35.20
2018-07-01T12:01:28.860Z,34.90
2018-07-01T12:03:57.379Z,32.80
2018-07-01T12:06:26.459Z,34.20
2018-07-01T12:08:55.278Z,34.10
2018-07-01T12:13:52.025Z,34.20
2018-07-01T12:16:20.571Z,33.70
2018-07-01T12:18:49.310Z,33.40
2018-07-01T12:21:18.382Z,34.00
2018-07-01T12:23:46.928Z,33.80
2018-07-01T12:26:15.643Z,34.20
2018-07-01T12:28:44.487Z,34.60
2018-07-01T12:31:12.931Z,34.70
2018-07-01T12:33:41.545Z,34.80
2018-07-01T12:38:39.935Z,35.20
2018-07-01T12:41:08.398Z,35.00
2018-07-01T12:43:37.229Z,34.80
2018-07-01T12:46:06.087Z,35.70
2018-07-01T12:48:34.703Z,34.40
2018-07-01T12:51:03.357Z,35.10
2018-07-01T12:53:31.828Z,34.70
2018-07-01T12:56:00.334Z,34.70
2018-07-01T12:58:29.175Z,34.10
2018-07-01T13:00:57.778Z,33.70
2018-07-01T13:03:26.843Z,32.10
2018-07-01T13:05:55.383Z,32.60
2018-07-01T13:10:53.007Z,33.60
2018-07-01T13:13:21.494Z,33.70
2018-07-01T13:15:50.455Z,34.30
2018-07-01T13:18:18.925Z,33.30
2018-07-01T13:20:47.826Z,30.40
2018-07-01T13:23:16.297Z,29.70
2018-07-01T13:25:44.838Z,29.10
2018-07-01T13:28:13.297Z,26.90
2018-07-01T13:30:41.828Z,26.40
2018-07-01T13:33:10.393Z,27.00
2018-07-01T13:35:38.935Z,27.00
2018-07-01T13:38:07.518Z,27.50
2018-07-01T13:40:35.988Z,27.50
2018-07-01T13:43:04.563Z,27.90
2018-07-01T13:45:33.219Z,28.50
2018-07-01T13:48:01.713Z,29.20
2018-07-01T13:52:59.001Z,28.50
2018-07-01T13:55:27.465Z,27.10
2018-07-01T13:57:55.989Z,27.50
2018-07-01T14:00:24.489Z,27.90
2018-07-01T14:02:53.173Z,28.10
2018-07-01T14:05:22.439Z,28.60
2018-07-01T14:07:51.032Z,28.50
2018-07-01T14:10:19.515Z,29.00
2018-07-01T14:12:48.235Z,28.90
2018-07-01T14:15:16.747Z,28.80
2018-07-01T14:17:45.229Z,29.00
2018-07-01T14:20:13.728Z,29.00
2018-07-01T14:22:42.222Z,28.80
2018-07-01T14:25:10.850Z,28.40
2018-07-01T14:27:39.881Z,27.20
2018-07-01T14:30:10.320Z,26.70
2018-07-01T14:32:38.802Z,25.90
2018-07-01T14:35:07.378Z,24.90
2018-07-01T14:37:36.458Z,24.60
2018-07-01T14:40:05.438Z,25.00
2018-07-01T14:42:33.993Z,24.50
2018-07-01T14:45:02.503Z,25.50
2018-07-01T14:49:59.176Z,26.20
2018-07-01T14:52:27.707Z,26.20
2018-07-01T14:54:56.311Z,26.80
2018-07-01T14:57:24.845Z,26.70
2018-07-01T14:59:53.919Z,26.60
2018-07-01T15:02:22.502Z,23.00
2018-07-01T15:04:50.982Z,20.10
2018-07-01T15:07:19.524Z,19.30
2018-07-01T15:09:48.025Z,19.20
2018-07-01T15:12:17.111Z,20.20
2018-07-01T15:14:45.651Z,22.00
2018-07-01T15:17:14.232Z,22.50
2018-07-01T15:19:42.742Z,23.40
2018-07-01T15:22:11.335Z,24.30
2018-07-01T15:24:39.829Z,24.00
2018-07-01T15:27:08.324Z,24.10
2018-07-01T15:29:36.803Z,24.10
2018-07-01T15:32:05.271Z,24.90
2018-07-01T15:34:33.785Z,25.20
2018-07-01T15:37:02.543Z,25.50
2018-07-01T15:39:31.094Z,25.70
2018-07-01T15:41:59.686Z,25.40
2018-07-01T15:44:28.293Z,22.70
2018-07-01T15:46:56.791Z,21.60
2018-07-01T15:49:25.306Z,20.80
2018-07-01T15:51:53.822Z,18.30
2018-07-01T15:54:22.391Z,16.70
2018-07-01T15:56:51.671Z,15.60
2018-07-01T15:59:20.208Z,14.40
2018-07-01T16:01:48.719Z,13.20
2018-07-01T16:04:17.301Z,12.40
2018-07-01T16:06:45.893Z,13.80
2018-07-01T16:09:14.440Z,16.20
2018-07-01T16:11:42.990Z,16.30
2018-07-01T16:14:11.686Z,17.40
2018-07-01T16:16:40.135Z,17.50
2018-07-01T16:19:08.744Z,16.80
2018-07-01T16:21:37.263Z,13.90
2018-07-01T16:24:06.789Z,12.80
2018-07-01T16:26:40.544Z,11.20
2018-07-01T16:29:09.059Z,11.80
2018-07-01T16:31:37.571Z,13.90
2018-07-01T16:34:06.118Z,15.80
2018-07-01T16:36:34.708Z,15.50
2018-07-01T16:39:04.966Z,16.70
2018-07-01T16:41:33.711Z,18.20
2018-07-01T16:44:02.215Z,18.30
2018-07-01T16:46:30.870Z,19.50
2018-07-01T16:48:59.675Z,19.90
2018-07-01T16:51:28.161Z,20.10
2018-07-01T16:53:56.988Z,21.00
2018-07-01T16:56:25.544Z,21.40
2018-07-01T16:58:54.579Z,21.90
2018-07-01T17:01:23.071Z,22.70
2018-07-01T17:03:51.581Z,23.30
2018-07-01T17:06:20.076Z,23.10
2018-07-01T17:08:48.535Z,22.90
2018-07-01T17:11:17.031Z,22.70
2018-07-01T17:13:45.847Z,23.40
2018-07-01T17:16:14.537Z,23.80
2018-07-01T17:18:42.994Z,23.50
2018-07-01T17:21:11.469Z,24.20
2018-07-01T17:23:40.020Z,24.60
2018-07-01T17:26:08.598Z,24.50
2018-07-01T17:28:37.095Z,25.00
2018-07-01T17:31:11.232Z,25.00
2018-07-01T17:33:39.755Z,25.30
2018-07-01T17:36:08.326Z,25.60
2018-07-01T17:38:36.950Z,25.50
2018-07-01T17:41:05.791Z,25.80
2018-07-01T17:43:34.298Z,26.10
2018-07-01T17:46:03.613Z,26.40
2018-07-01T17:48:32.157Z,26.50
2018-07-01T17:51:01.648Z,26.40
2018-07-01T17:53:41.300Z,26.30
2018-07-01T17:56:09.812Z,26.40
2018-07-01T17:58:38.394Z,26.90
2018-07-01T18:01:07.193Z,27.00
2018-07-01T18:03:35.755Z,27.40
2018-07-01T18:06:04.630Z,27.30
2018-07-01T18:08:33.194Z,27.40
2018-07-01T18:11:01.734Z,27.60
2018-07-01T18:13:30.253Z,27.90
2018-07-01T18:18:27.627Z,27.90
2018-07-01T18:20:56.148Z,28.10
2018-07-01T18:23:53.708Z,28.10
2018-07-01T18:25:53.561Z,28.30
2018-07-01T18:28:30.189Z,28.70
2018-07-01T18:30:50.758Z,28.80
2018-07-01T18:33:19.415Z,28.70
2018-07-01T18:35:48.038Z,28.80
2018-07-01T18:38:16.709Z,29.00
2018-07-01T18:40:45.526Z,29.20
2018-07-01T18:43:14.267Z,29.40
2018-07-01T18:45:42.764Z,29.40
2018-07-01T18:48:11.337Z,29.40
2018-07-01T18:50:39.967Z,29.50
2018-07-01T18:53:08.749Z,29.70
2018-07-01T18:55:37.315Z,30.00
2018-07-01T18:58:05.897Z,30.10
2018-07-01T19:00:34.559Z,30.30
2018-07-01T19:03:03.311Z,30.90
2018-07-01T19:05:31.843Z,30.90
2018-07-01T19:08:00.400Z,30.80
2018-07-01T19:10:29.595Z,30.60
2018-07-01T19:12:58.149Z,30.60
2018-07-01T19:15:26.752Z,30.50
2018-07-01T19:17:55.497Z,30.50
2018-07-01T19:20:24.017Z,30.40
2018-07-01T19:22:52.946Z,30.70
2018-07-01T19:25:21.431Z,31.40
2018-07-01T19:27:50.058Z,32.00
2018-07-01T19:30:18.580Z,32.40
2018-07-01T19:32:47.319Z,32.80
2018-07-01T19:35:15.779Z,33.10
2018-07-01T19:37:44.344Z,33.50
2018-07-01T19:40:12.874Z,33.70
2018-07-01T19:42:42.423Z,34.20
2018-07-01T19:45:10.854Z,34.60
2018-07-01T19:47:39.481Z,34.90
2018-07-01T19:52:42.745Z,35.50
2018-07-01T19:55:11.318Z,35.80
2018-07-01T19:57:39.794Z,36.20
2018-07-01T20:00:08.426Z,36.30
2018-07-01T20:02:36.945Z,36.30
2018-07-01T20:05:05.483Z,36.00
2018-07-01T20:07:34.388Z,36.20
2018-07-01T20:10:03.028Z,36.80
2018-07-01T20:12:31.543Z,37.20
2018-07-01T20:15:00.368Z,37.60
2018-07-01T20:19:57.101Z,37.60
2018-07-01T20:22:25.631Z,38.30
2018-07-01T20:24:54.383Z,38.70
2018-07-01T20:27:23.512Z,38.50
2018-07-01T20:29:52.632Z,39.00
2018-07-01T20:32:21.199Z,39.40
2018-07-01T20:34:50.319Z,39.30
2018-07-01T20:37:18.969Z,40.00
2018-07-01T20:39:48.248Z,40.00
2018-07-01T20:42:16.878Z,40.80
2018-07-01T20:44:45.410Z,40.50
2018-07-01T20:47:14.031Z,40.90
2018-07-01T20:49:42.726Z,41.80
2018-07-01T20:52:11.931Z,42.00
2018-07-01T20:54:40.515Z,41.90
2018-07-01T20:57:09.564Z,41.90
2018-07-01T20:59:38.131Z,41.90
2018-07-01T21:02:06.834Z,41.80
2018-07-01T21:04:36.294Z,41.80
2018-07-01T21:07:05.050Z,41.70
2018-07-01T21:09:33.747Z,41.60
2018-07-01T21:12:02.360Z,41.60
2018-07-01T21:14:30.910Z,41.40
2018-07-01T21:16:59.560Z,42.30
2018-07-01T21:21:56.365Z,42.30
2018-07-01T21:24:24.914Z,42.50
2018-07-01T21:26:53.421Z,43.20
2018-07-01T21:29:21.990Z,43.50
2018-07-01T21:31:50.554Z,43.70
2018-07-01T21:34:19.122Z,43.50
2018-07-01T21:36:48.448Z,44.10
2018-07-01T21:39:17.894Z,44.40
2018-07-01T21:41:46.395Z,43.90
2018-07-01T21:44:14.929Z,44.90
2018-07-01T21:46:43.380Z,44.40
2018-07-01T21:49:11.885Z,44.80
2018-07-01T21:51:40.406Z,45.50
2018-07-01T21:54:08.927Z,45.80
2018-07-01T21:56:37.402Z,46.10
2018-07-01T21:59:05.955Z,46.10
2018-07-01T22:01:34.519Z,46.40
2018-07-01T22:04:03.126Z,47.60
2018-07-01T22:06:36.943Z,47.10
2018-07-01T22:09:07.469Z,47.60
2018-07-01T22:11:50.501Z,47.50
2018-07-01T22:14:27.812Z,47.50
2018-07-01T22:16:56.482Z,48.40
2018-07-01T22:19:25.293Z,48.90
2018-07-01T22:21:54.822Z,48.60
2018-07-01T22:24:25.445Z,49.20
2018-07-01T22:26:54.001Z,49.10
2018-07-01T22:29:22.492Z,48.70
2018-07-01T22:31:51.182Z,48.00
2018-07-01T22:34:20.083Z,48.20
2018-07-01T22:36:49.278Z,48.80
2018-07-01T22:39:20.983Z,48.60
2018-07-01T22:41:50.344Z,49.00
2018-07-01T22:44:18.881Z,49.10
2018-07-01T22:46:48.076Z,49.00
2018-07-01T22:49:16.615Z,49.40
2018-07-01T22:51:45.118Z,50.10
2018-07-01T22:54:13.690Z,50.30
2018-07-01T22:56:42.205Z,50.60
2018-07-01T23:03:48.100Z,51.10
2018-07-01T23:06:16.801Z,50.60
2018-07-01T23:08:45.686Z,51.80
2018-07-01T23:11:14.157Z,51.40
2018-07-01T23:13:42.694Z,51.50
2018-07-01T23:16:11.222Z,51.70
2018-07-01T23:18:39.971Z,51.50
2018-07-01T23:21:08.439Z,51.30
2018-07-01T23:23:36.920Z,51.50
2018-07-01T23:26:05.949Z,51.60
2018-07-01T23:28:34.834Z,52.30
2018-07-01T23:31:03.597Z,52.80
2018-07-01T23:33:32.445Z,52.20
2018-07-01T23:36:00.993Z,54.00
2018-07-01T23:38:30.227Z,53.00
2018-07-01T23:40:58.756Z,53.00
2018-07-01T23:43:27.242Z,53.00
2018-07-01T23:45:55.777Z,52.90
2018-07-01T23:48:24.250Z,52.90
2018-07-01T23:50:52.758Z,52.80
2018-07-01T23:53:21.214Z,52.70
2018-07-01T23:55:49.770Z,52.80
2018-07-01T23:58:18.241Z,52.80
